Terminal Aerodrome Forecast
Issued by NWS Cleveland, OH

Home | Current Version | Previous Version | Graphics & Text | Print | Product List | Glossary Off
Versions: 1 2 3 4 5 6 7 8 9 10 11 12

000
FTUS41 KCLE 182300
TAFMFD
TAF
KMFD 182330Z 1900/1924 30005KT P6SM SCT060 BKN120
     FM190400 01008KT P6SM SKC
     FM190900 04008KT P6SM SCT028
     FM191400 06012KT P6SM FEW100 SCT250=

USA.gov is the U.S. government's official web portal to all federal, state and local government web resources and services.